23h27 EDT


 

Suivi/Infos de l'aéroport


-ou-


 

Suivi des vols en temps réelTradewind #668

Thumbnail
Tradewind 668
GPD668 · "Goodspeed" (tous les vols)
Nantucket Memorial ()
Teterboro ()
18h24 EDT
19h17 EDT
Prévu: 18h15 EDT
Moyenne: 19h15 EDT
Prévu: 19h21 EDT
Moyenne: 20h04 EDT
Durée: 53 minutes
mardi, 2 septembre 2014
Statut A atterri il y a plus de 4 heures (journal de vol & graphique)
Avion Pilatus PC-12 (monoturbopropulseur) (PC12 – photos)
Vitesse Plan de vol: 219 kts (graphique)
Altitude (graphique)
Distance En ligne droite 339 km    Prévue 362 km    Parcourue 384 km
Route V146 PVD V167 HFD V3 CMK V623 SAX (Décoder)
JOURNAL DE L'ACTIVITE
Vous voulez une recherche complète sur l'historique de GPD668 depuis 1998? Achetez maintenant. Recevez-le dans l'heure.
Date Avion Provenance Destination Départ Arrivée Durée
02-09-2014 PC12Nantucket Memorial ()Teterboro () 18h24 EDT 19h17 EDT 0:53
02-09-2014 PC12/GTeterboro ()Nantucket Memorial () 16h45 EDT 17h38 EDT 0:53
02-09-2014 PC12/GNantucket Memorial ()Teterboro () 15h09 EDT 16h00 EDT 0:51
02-09-2014 PC12/GNantucket Memorial ()Teterboro () 09h36 EDT 10h31 EDT 0:55
02-09-2014 PC12/GWaterbury-Oxford ()Nantucket Memorial () 04h48 EDT 05h37 EDT 0:49
01-09-2014 PC12/GNantucket Memorial ()Teterboro () 20h14 EDT 21h04 EDT 0:50
01-09-2014 PC12/GTeterboro ()Nantucket Memorial () 19h08 EDT 20h08 EDT (?) 0:59
01-09-2014 PC12/GNantucket Memorial ()Teterboro () 17h30 EDT 18h17 EDT 0:47
01-09-2014 PC12/GNantucket Memorial ()Teterboro () 14h56 EDT 15h49 EDT 0:53
01-09-2014 PC12/GWestchester County ()Nantucket Memorial () 13h31 EDT 14h10 EDT (?) 0:39
01-09-2014 PC12/GNantucket Memorial ()Westchester County () 12h08 EDT 12h58 EDT 0:50
29-08-2014 PC12/GWestchester County ()Nantucket Memorial () 19h03 EDT 19h43 EDT 0:40
29-08-2014 PC12/GNantucket Memorial ()Westchester County () 17h25 EDT 18h14 EDT 0:49
29-08-2014 PC12Teterboro ()Nantucket Memorial () 16h04 EDT 16h50 EDT 0:45
29-08-2014 PC12Nantucket Memorial ()Teterboro () 14h06 EDT 14h57 EDT 0:51
29-08-2014 PC12/GGroton-New London ()Teterboro () 10h35 EDT 11h18 EDT 0:43
29-08-2014 PC12/GGroton-New London ()Nantucket Memorial () 10h35 EDT Dérouté
29-08-2014 PC12/GGroton-New London ()Nantucket Memorial () 08h53 EDT 09h41 EDT 0:47
28-08-2014 PC12Nantucket Memorial ()Waterbury-Oxford () 19h59 EDT 20h42 EDT 0:43
28-08-2014 PC12Nantucket Memorial ()Westchester County () 16h58 EDT 17h41 EDT 0:43
28-08-2014 PC12Westchester County ()Nantucket Memorial () 15h52 EDT 16h32 EDT 0:40
27-08-2014 PC12East Hampton ()Nantucket Memorial () 14h41 EDT 15h59 EDT 1:18
27-08-2014 PC12/GNantucket Memorial ()Westchester County () 10h55 EDT 11h38 EDT 0:43
27-08-2014 PC12/GGroton-New London ()Nantucket Memorial () 09h20 EDT 09h52 EDT (?) 0:31
27-08-2014 PC12/GNantucket Memorial ()Nantucket Memorial () 09h03 EDT 09h56 EDT 0:52
27-08-2014 PC12/GNantucket Memorial ()Westchester County () 09h03 EDT Dérouté
26-08-2014 PC12Nantucket Memorial ()Westchester County () 21h13 EDT 21h58 EDT 0:45
26-08-2014 PC12/GWaterbury-Oxford ()Nantucket Memorial () 20h07 EDT 20h38 EDT (?) 0:31
26-08-2014 PC12/GNantucket Memorial ()Westchester County () 17h29 EDT 18h11 EDT 0:42
26-08-2014 PC12/GWestchester County ()Nantucket Memorial () 16h08 EDT 16h49 EDT 0:40
26-08-2014 PC12/GNantucket Memorial ()Westchester County () 10h41 EDT 11h20 EDT 0:39
26-08-2014 PC12/GWestchester County ()Nantucket Memorial () 09h00 EDT 09h43 EDT 0:42
25-08-2014 PC12Nantucket Memorial ()Teterboro () 09h11 EDT 09h56 EDT 0:45
25-08-2014 PC12Teterboro ()Nantucket Memorial () 07h30 EDT 08h16 EDT 0:46
25-08-2014 PC12Nantucket Memorial ()Teterboro () 06h07 EDT 06h51 EDT 0:44
25-08-2014 PC12Int'l Bradley ()Nantucket Memorial () 04h36 EDT 05h21 EDT 0:45
24-08-2014 PC12Nantucket Memorial ()Teterboro () 20h04 EDT 21h03 EDT 0:59
24-08-2014 PC12Nantucket Memorial ()Teterboro () 17h11 EDT 17h59 EDT 0:48
22-08-2014 PC12/GWestchester County ()Nantucket Memorial () 19h13 EDT 19h59 EDT 0:45
22-08-2014 PC12/GNantucket Memorial ()Westchester County () 17h16 EDT 18h05 EDT 0:48
22-08-2014 PC12/AWestchester County ()Nantucket Memorial () 15h25 EDT 16h11 EDT 0:46
21-08-2014 PC12Nantucket Memorial ()Waterbury-Oxford () 16h52 EDT 17h32 EDT 0:40
21-08-2014 UnknownTeterboro ()Nantucket Memorial () 15h57 EDT 17h00 EDT 1:03
21-08-2014 PC12/GNantucket Memorial ()Teterboro () 14h00 EDT 14h42 EDT 0:42
21-08-2014 PC12Groton-New London ()Nantucket Memorial () 12h53 EDT 16h16 EDT 3:23
21-08-2014 PC12/GTeterboro ()Nantucket Memorial () 12h29 EDT 13h12 EDT 0:42
21-08-2014 PC12Nantucket Memorial ()Teterboro () 10h36 EDT 11h27 EDT 0:51
21-08-2014 PC12/GTeterboro ()Nantucket Memorial () 08h59 EDT 09h46 EDT 0:46
20-08-2014 PC12/Grégional de Manchester ()Waterbury-Oxford () 16h35 EDT 17h07 EDT 0:31
20-08-2014 PC12/GWaterbury-Oxford ()régional de Manchester () 13h03 EDT 13h35 EDT 0:32
Les membres inscrits (l'inscription est gratuite et facile!) voient 4 months d'historique. S'inscrire